sensor_id;sensor_type;location;lat;lon;timestamp;P1;durP1;ratioP1;P2;durP2;ratioP2
35777;SDS011;21899;42.662;23.316;2023-05-18T00:00:27;3.47;;;1.58;;
35777;SDS011;21899;42.662;23.316;2023-05-18T00:02:53;4.30;;;1.77;;
35777;SDS011;21899;42.662;23.316;2023-05-18T00:05:18;4.60;;;1.83;;
35777;SDS011;21899;42.662;23.316;2023-05-18T00:07:43;3.78;;;1.60;;
35777;SDS011;21899;42.662;23.316;2023-05-18T00:10:10;4.38;;;1.65;;
35777;SDS011;21899;42.662;23.316;2023-05-18T00:12:35;3.20;;;1.42;;
35777;SDS011;21899;42.662;23.316;2023-05-18T00:15:01;3.88;;;1.98;;
35777;SDS011;21899;42.662;23.316;2023-05-18T00:17:27;3.17;;;1.45;;
35777;SDS011;21899;42.662;23.316;2023-05-18T00:19:52;2.50;;;1.25;;
35777;SDS011;21899;42.662;23.316;2023-05-18T00:22:17;4.75;;;1.65;;
35777;SDS011;21899;42.662;23.316;2023-05-18T00:24:46;3.20;;;1.50;;
35777;SDS011;21899;42.662;23.316;2023-05-18T00:27:12;2.67;;;1.33;;
35777;SDS011;21899;42.662;23.316;2023-05-18T00:29:39;2.42;;;1.35;;
35777;SDS011;21899;42.662;23.316;2023-05-18T00:32:04;2.03;;;1.30;;
35777;SDS011;21899;42.662;23.316;2023-05-18T00:34:30;1.92;;;1.10;;
35777;SDS011;21899;42.662;23.316;2023-05-18T00:36:56;2.25;;;1.20;;
35777;SDS011;21899;42.662;23.316;2023-05-18T00:39:21;1.73;;;1.15;;
35777;SDS011;21899;42.662;23.316;2023-05-18T00:41:47;3.40;;;1.35;;
35777;SDS011;21899;42.662;23.316;2023-05-18T00:44:12;3.42;;;1.33;;
35777;SDS011;21899;42.662;23.316;2023-05-18T00:46:37;3.85;;;1.40;;
35777;SDS011;21899;42.662;23.316;2023-05-18T00:49:03;3.28;;;1.00;;
35777;SDS011;21899;42.662;23.316;2023-05-18T00:51:28;2.35;;;1.05;;
35777;SDS011;21899;42.662;23.316;2023-05-18T00:53:56;4.88;;;1.10;;
35777;SDS011;21899;42.662;23.316;2023-05-18T00:56:23;2.88;;;1.10;;
35777;SDS011;21899;42.662;23.316;2023-05-18T00:58:51;4.60;;;1.42;;
35777;SDS011;21899;42.662;23.316;2023-05-18T01:01:20;1.48;;;1.02;;
35777;SDS011;21899;42.662;23.316;2023-05-18T01:03:52;3.08;;;1.20;;
35777;SDS011;21899;42.662;23.316;2023-05-18T01:06:20;3.38;;;0.95;;
35777;SDS011;21899;42.662;23.316;2023-05-18T01:08:46;4.45;;;1.23;;
35777;SDS011;21899;42.662;23.316;2023-05-18T01:14:08;1.77;;;0.93;;
35777;SDS011;21899;42.662;23.316;2023-05-18T01:16:38;2.08;;;1.23;;
35777;SDS011;21899;42.662;23.316;2023-05-18T01:22:00;2.60;;;1.40;;
35777;SDS011;21899;42.662;23.316;2023-05-18T01:24:38;3.55;;;1.30;;
35777;SDS011;21899;42.662;23.316;2023-05-18T01:27:07;2.35;;;1.33;;
35777;SDS011;21899;42.662;23.316;2023-05-18T01:29:33;3.22;;;1.52;;
35777;SDS011;21899;42.662;23.316;2023-05-18T01:31:59;3.90;;;1.70;;
35777;SDS011;21899;42.662;23.316;2023-05-18T01:34:25;3.55;;;1.50;;
35777;SDS011;21899;42.662;23.316;2023-05-18T01:36:51;2.05;;;1.27;;
35777;SDS011;21899;42.662;23.316;2023-05-18T01:39:16;2.42;;;1.45;;
35777;SDS011;21899;42.662;23.316;2023-05-18T01:41:57;3.80;;;1.83;;
35777;SDS011;21899;42.662;23.316;2023-05-18T01:44:35;2.58;;;1.50;;
35777;SDS011;21899;42.662;23.316;2023-05-18T01:47:20;3.30;;;1.90;;
35777;SDS011;21899;42.662;23.316;2023-05-18T01:49:55;4.63;;;1.67;;
35777;SDS011;21899;42.662;23.316;2023-05-18T01:52:34;2.60;;;1.65;;
35777;SDS011;21899;42.662;23.316;2023-05-18T01:55:04;2.78;;;1.50;;
35777;SDS011;21899;42.662;23.316;2023-05-18T01:57:32;3.08;;;1.80;;
35777;SDS011;21899;42.662;23.316;2023-05-18T01:59:59;3.47;;;1.70;;
35777;SDS011;21899;42.662;23.316;2023-05-18T02:02:25;5.15;;;1.75;;
35777;SDS011;21899;42.662;23.316;2023-05-18T02:04:50;2.33;;;1.50;;
35777;SDS011;21899;42.662;23.316;2023-05-18T02:07:16;3.40;;;1.75;;
35777;SDS011;21899;42.662;23.316;2023-05-18T02:09:41;3.50;;;1.52;;
35777;SDS011;21899;42.662;23.316;2023-05-18T02:12:08;3.83;;;1.70;;
35777;SDS011;21899;42.662;23.316;2023-05-18T02:14:34;3.40;;;1.58;;
35777;SDS011;21899;42.662;23.316;2023-05-18T02:17:00;5.50;;;1.58;;
35777;SDS011;21899;42.662;23.316;2023-05-18T02:19:25;3.13;;;1.70;;
35777;SDS011;21899;42.662;23.316;2023-05-18T02:21:51;4.38;;;2.08;;
35777;SDS011;21899;42.662;23.316;2023-05-18T02:24:16;6.32;;;1.83;;
35777;SDS011;21899;42.662;23.316;2023-05-18T02:26:42;3.08;;;1.85;;
35777;SDS011;21899;42.662;23.316;2023-05-18T02:29:08;4.03;;;2.20;;
35777;SDS011;21899;42.662;23.316;2023-05-18T02:31:36;4.53;;;2.38;;
35777;SDS011;21899;42.662;23.316;2023-05-18T02:34:02;3.55;;;2.28;;
35777;SDS011;21899;42.662;23.316;2023-05-18T02:36:27;4.07;;;2.25;;
35777;SDS011;21899;42.662;23.316;2023-05-18T02:39:01;3.83;;;2.63;;
35777;SDS011;21899;42.662;23.316;2023-05-18T02:41:35;8.18;;;3.25;;
35777;SDS011;21899;42.662;23.316;2023-05-18T02:44:01;5.35;;;3.15;;
35777;SDS011;21899;42.662;23.316;2023-05-18T02:46:28;5.22;;;3.00;;
35777;SDS011;21899;42.662;23.316;2023-05-18T02:48:54;6.35;;;3.10;;
35777;SDS011;21899;42.662;23.316;2023-05-18T02:51:19;4.78;;;2.75;;
35777;SDS011;21899;42.662;23.316;2023-05-18T02:53:46;4.30;;;2.72;;
35777;SDS011;21899;42.662;23.316;2023-05-18T02:56:11;4.07;;;2.67;;
35777;SDS011;21899;42.662;23.316;2023-05-18T02:58:37;4.78;;;2.92;;
35777;SDS011;21899;42.662;23.316;2023-05-18T03:01:03;6.90;;;2.60;;
35777;SDS011;21899;42.662;23.316;2023-05-18T03:03:32;4.97;;;3.10;;
35777;SDS011;21899;42.662;23.316;2023-05-18T03:05:58;5.22;;;3.00;;
35777;SDS011;21899;42.662;23.316;2023-05-18T03:08:26;4.68;;;3.22;;
35777;SDS011;21899;42.662;23.316;2023-05-18T03:10:52;6.82;;;3.47;;
35777;SDS011;21899;42.662;23.316;2023-05-18T03:13:21;6.32;;;3.63;;
35777;SDS011;21899;42.662;23.316;2023-05-18T03:15:46;6.00;;;3.58;;
35777;SDS011;21899;42.662;23.316;2023-05-18T03:18:13;8.05;;;3.63;;
35777;SDS011;21899;42.662;23.316;2023-05-18T03:20:38;5.88;;;3.53;;
35777;SDS011;21899;42.662;23.316;2023-05-18T03:23:04;5.55;;;3.35;;
35777;SDS011;21899;42.662;23.316;2023-05-18T03:25:30;5.13;;;3.42;;
35777;SDS011;21899;42.662;23.316;2023-05-18T03:27:57;4.50;;;2.42;;
35777;SDS011;21899;42.662;23.316;2023-05-18T03:30:23;5.05;;;2.70;;
35777;SDS011;21899;42.662;23.316;2023-05-18T03:32:48;5.43;;;3.13;;
35777;SDS011;21899;42.662;23.316;2023-05-18T03:35:13;4.10;;;2.90;;
35777;SDS011;21899;42.662;23.316;2023-05-18T03:37:39;4.45;;;3.10;;
35777;SDS011;21899;42.662;23.316;2023-05-18T03:40:12;4.57;;;3.40;;
35777;SDS011;21899;42.662;23.316;2023-05-18T03:42:39;5.32;;;3.35;;
35777;SDS011;21899;42.662;23.316;2023-05-18T03:45:05;5.25;;;3.42;;
35777;SDS011;21899;42.662;23.316;2023-05-18T03:47:32;5.28;;;3.75;;
35777;SDS011;21899;42.662;23.316;2023-05-18T03:49:58;6.25;;;3.85;;
35777;SDS011;21899;42.662;23.316;2023-05-18T03:52:23;5.75;;;4.03;;
35777;SDS011;21899;42.662;23.316;2023-05-18T03:54:49;7.50;;;4.20;;
35777;SDS011;21899;42.662;23.316;2023-05-18T03:57:15;6.15;;;3.67;;
35777;SDS011;21899;42.662;23.316;2023-05-18T03:59:42;6.00;;;3.75;;
35777;SDS011;21899;42.662;23.316;2023-05-18T04:02:09;7.13;;;4.25;;
35777;SDS011;21899;42.662;23.316;2023-05-18T04:04:35;8.18;;;4.15;;
35777;SDS011;21899;42.662;23.316;2023-05-18T04:07:00;7.15;;;4.65;;
35777;SDS011;21899;42.662;23.316;2023-05-18T04:09:26;10.32;;;5.93;;
35777;SDS011;21899;42.662;23.316;2023-05-18T04:11:53;6.60;;;4.38;;
35777;SDS011;21899;42.662;23.316;2023-05-18T04:14:18;6.97;;;4.80;;
35777;SDS011;21899;42.662;23.316;2023-05-18T04:16:45;9.43;;;4.57;;
35777;SDS011;21899;42.662;23.316;2023-05-18T04:19:11;7.25;;;5.35;;
35777;SDS011;21899;42.662;23.316;2023-05-18T04:21:37;6.90;;;4.97;;
35777;SDS011;21899;42.662;23.316;2023-05-18T04:24:04;6.45;;;4.80;;
35777;SDS011;21899;42.662;23.316;2023-05-18T04:26:34;6.68;;;4.63;;
35777;SDS011;21899;42.662;23.316;2023-05-18T04:29:02;8.50;;;4.43;;
35777;SDS011;21899;42.662;23.316;2023-05-18T04:31:28;10.07;;;5.00;;
35777;SDS011;21899;42.662;23.316;2023-05-18T04:33:56;23.30;;;11.45;;
35777;SDS011;21899;42.662;23.316;2023-05-18T04:36:22;10.98;;;4.75;;
35777;SDS011;21899;42.662;23.316;2023-05-18T04:38:49;5.63;;;4.57;;
35777;SDS011;21899;42.662;23.316;2023-05-18T04:41:16;10.05;;;4.90;;
35777;SDS011;21899;42.662;23.316;2023-05-18T04:43:44;6.78;;;4.78;;
35777;SDS011;21899;42.662;23.316;2023-05-18T04:46:11;10.45;;;4.63;;
35777;SDS011;21899;42.662;23.316;2023-05-18T04:48:38;10.52;;;5.20;;
35777;SDS011;21899;42.662;23.316;2023-05-18T04:51:03;7.82;;;5.28;;
35777;SDS011;21899;42.662;23.316;2023-05-18T04:53:30;7.03;;;4.82;;
35777;SDS011;21899;42.662;23.316;2023-05-18T04:55:57;7.13;;;5.07;;
35777;SDS011;21899;42.662;23.316;2023-05-18T04:58:24;9.13;;;5.18;;
35777;SDS011;21899;42.662;23.316;2023-05-18T05:00:51;8.25;;;4.80;;
35777;SDS011;21899;42.662;23.316;2023-05-18T05:03:17;6.43;;;5.07;;
35777;SDS011;21899;42.662;23.316;2023-05-18T05:05:42;7.20;;;5.20;;
35777;SDS011;21899;42.662;23.316;2023-05-18T05:08:08;9.02;;;4.85;;
35777;SDS011;21899;42.662;23.316;2023-05-18T05:10:33;11.02;;;4.93;;
35777;SDS011;21899;42.662;23.316;2023-05-18T05:12:59;7.00;;;5.22;;
35777;SDS011;21899;42.662;23.316;2023-05-18T05:15:24;7.28;;;5.60;;
35777;SDS011;21899;42.662;23.316;2023-05-18T05:17:50;8.70;;;5.60;;
35777;SDS011;21899;42.662;23.316;2023-05-18T05:20:15;5.10;;;4.60;;
35777;SDS011;21899;42.662;23.316;2023-05-18T05:22:41;8.90;;;4.97;;
35777;SDS011;21899;42.662;23.316;2023-05-18T05:25:06;6.30;;;4.95;;
35777;SDS011;21899;42.662;23.316;2023-05-18T05:27:32;6.95;;;5.15;;
35777;SDS011;21899;42.662;23.316;2023-05-18T05:29:58;7.18;;;5.10;;
35777;SDS011;21899;42.662;23.316;2023-05-18T05:32:23;8.63;;;4.78;;
35777;SDS011;21899;42.662;23.316;2023-05-18T05:34:49;8.25;;;5.55;;
35777;SDS011;21899;42.662;23.316;2023-05-18T05:37:15;6.78;;;4.90;;
35777;SDS011;21899;42.662;23.316;2023-05-18T05:39:41;9.10;;;5.13;;
35777;SDS011;21899;42.662;23.316;2023-05-18T05:42:07;6.85;;;5.43;;
35777;SDS011;21899;42.662;23.316;2023-05-18T05:44:32;10.40;;;5.75;;
35777;SDS011;21899;42.662;23.316;2023-05-18T05:46:58;7.70;;;5.90;;
35777;SDS011;21899;42.662;23.316;2023-05-18T05:49:23;8.68;;;6.25;;
35777;SDS011;21899;42.662;23.316;2023-05-18T05:51:49;10.70;;;6.70;;
35777;SDS011;21899;42.662;23.316;2023-05-18T05:54:14;8.10;;;6.32;;
35777;SDS011;21899;42.662;23.316;2023-05-18T05:56:40;8.10;;;6.63;;
35777;SDS011;21899;42.662;23.316;2023-05-18T05:59:05;10.93;;;6.75;;
35777;SDS011;21899;42.662;23.316;2023-05-18T06:01:31;11.70;;;7.10;;
35777;SDS011;21899;42.662;23.316;2023-05-18T06:03:56;14.63;;;8.10;;
35777;SDS011;21899;42.662;23.316;2023-05-18T06:06:22;11.60;;;7.18;;
35777;SDS011;21899;42.662;23.316;2023-05-18T06:08:47;8.60;;;7.25;;
35777;SDS011;21899;42.662;23.316;2023-05-18T06:11:13;17.02;;;9.20;;
35777;SDS011;21899;42.662;23.316;2023-05-18T06:13:38;11.38;;;7.28;;
35777;SDS011;21899;42.662;23.316;2023-05-18T06:16:03;9.50;;;7.35;;
35777;SDS011;21899;42.662;23.316;2023-05-18T06:18:29;8.93;;;6.97;;
35777;SDS011;21899;42.662;23.316;2023-05-18T06:20:55;12.23;;;7.57;;
35777;SDS011;21899;42.662;23.316;2023-05-18T06:23:21;13.05;;;7.90;;
35777;SDS011;21899;42.662;23.316;2023-05-18T06:25:48;12.55;;;8.43;;
35777;SDS011;21899;42.662;23.316;2023-05-18T06:28:14;12.38;;;9.63;;
35777;SDS011;21899;42.662;23.316;2023-05-18T06:30:39;12.60;;;9.27;;
35777;SDS011;21899;42.662;23.316;2023-05-18T06:33:05;12.23;;;8.98;;
35777;SDS011;21899;42.662;23.316;2023-05-18T06:35:31;13.60;;;8.75;;
35777;SDS011;21899;42.662;23.316;2023-05-18T06:37:57;10.52;;;7.95;;
35777;SDS011;21899;42.662;23.316;2023-05-18T06:40:23;11.13;;;7.30;;
35777;SDS011;21899;42.662;23.316;2023-05-18T06:42:48;8.15;;;6.30;;
35777;SDS011;21899;42.662;23.316;2023-05-18T06:45:13;12.02;;;8.13;;
35777;SDS011;21899;42.662;23.316;2023-05-18T06:47:40;13.95;;;9.50;;
35777;SDS011;21899;42.662;23.316;2023-05-18T06:50:06;10.90;;;7.75;;
35777;SDS011;21899;42.662;23.316;2023-05-18T06:52:32;10.20;;;7.78;;
35777;SDS011;21899;42.662;23.316;2023-05-18T06:54:57;8.70;;;7.03;;
35777;SDS011;21899;42.662;23.316;2023-05-18T06:57:25;10.98;;;7.05;;
35777;SDS011;21899;42.662;23.316;2023-05-18T06:59:50;11.20;;;7.18;;
35777;SDS011;21899;42.662;23.316;2023-05-18T07:02:18;9.68;;;6.15;;
35777;SDS011;21899;42.662;23.316;2023-05-18T07:04:45;10.60;;;6.55;;
35777;SDS011;21899;42.662;23.316;2023-05-18T07:07:10;8.45;;;6.43;;
35777;SDS011;21899;42.662;23.316;2023-05-18T07:09:36;8.65;;;6.90;;
35777;SDS011;21899;42.662;23.316;2023-05-18T07:12:01;13.77;;;7.97;;
35777;SDS011;21899;42.662;23.316;2023-05-18T07:14:27;11.57;;;7.45;;
35777;SDS011;21899;42.662;23.316;2023-05-18T07:16:52;11.80;;;7.60;;
35777;SDS011;21899;42.662;23.316;2023-05-18T07:19:17;9.73;;;7.53;;
35777;SDS011;21899;42.662;23.316;2023-05-18T07:21:43;9.48;;;7.75;;
35777;SDS011;21899;42.662;23.316;2023-05-18T07:24:08;10.55;;;7.82;;
35777;SDS011;21899;42.662;23.316;2023-05-18T07:26:34;11.98;;;7.97;;
35777;SDS011;21899;42.662;23.316;2023-05-18T07:28:59;12.63;;;8.45;;
35777;SDS011;21899;42.662;23.316;2023-05-18T07:31:25;12.07;;;8.05;;
35777;SDS011;21899;42.662;23.316;2023-05-18T07:33:51;15.27;;;8.88;;
35777;SDS011;21899;42.662;23.316;2023-05-18T07:36:16;13.15;;;10.02;;
35777;SDS011;21899;42.662;23.316;2023-05-18T07:38:42;15.52;;;10.55;;
35777;SDS011;21899;42.662;23.316;2023-05-18T07:41:08;14.65;;;10.55;;
35777;SDS011;21899;42.662;23.316;2023-05-18T07:43:33;14.05;;;10.98;;
35777;SDS011;21899;42.662;23.316;2023-05-18T07:45:59;16.05;;;11.43;;
35777;SDS011;21899;42.662;23.316;2023-05-18T07:48:25;14.02;;;10.48;;
35777;SDS011;21899;42.662;23.316;2023-05-18T07:50:50;15.98;;;11.02;;
35777;SDS011;21899;42.662;23.316;2023-05-18T07:53:16;18.65;;;11.43;;
35777;SDS011;21899;42.662;23.316;2023-05-18T07:55:41;17.95;;;11.60;;
35777;SDS011;21899;42.662;23.316;2023-05-18T07:58:06;20.38;;;12.18;;
35777;SDS011;21899;42.662;23.316;2023-05-18T08:00:32;24.10;;;12.75;;
35777;SDS011;21899;42.662;23.316;2023-05-18T08:02:58;14.70;;;11.30;;
35777;SDS011;21899;42.662;23.316;2023-05-18T08:05:24;16.05;;;10.57;;
35777;SDS011;21899;42.662;23.316;2023-05-18T08:07:50;15.98;;;11.52;;
35777;SDS011;21899;42.662;23.316;2023-05-18T08:10:16;19.15;;;11.68;;
35777;SDS011;21899;42.662;23.316;2023-05-18T08:12:42;16.73;;;11.15;;
35777;SDS011;21899;42.662;23.316;2023-05-18T08:15:07;18.85;;;12.00;;
35777;SDS011;21899;42.662;23.316;2023-05-18T08:17:33;20.10;;;10.85;;
35777;SDS011;21899;42.662;23.316;2023-05-18T08:19:58;21.25;;;12.70;;
35777;SDS011;21899;42.662;23.316;2023-05-18T08:22:24;20.08;;;13.07;;
35777;SDS011;21899;42.662;23.316;2023-05-18T08:24:49;19.02;;;13.35;;
35777;SDS011;21899;42.662;23.316;2023-05-18T08:27:15;26.52;;;17.52;;
35777;SDS011;21899;42.662;23.316;2023-05-18T08:29:41;26.13;;;19.00;;
35777;SDS011;21899;42.662;23.316;2023-05-18T08:32:06;21.02;;;13.55;;
35777;SDS011;21899;42.662;23.316;2023-05-18T08:34:32;26.92;;;16.95;;
35777;SDS011;21899;42.662;23.316;2023-05-18T08:36:58;23.63;;;16.52;;
35777;SDS011;21899;42.662;23.316;2023-05-18T08:39:24;20.83;;;13.35;;
35777;SDS011;21899;42.662;23.316;2023-05-18T08:41:54;19.63;;;14.98;;
35777;SDS011;21899;42.662;23.316;2023-05-18T08:44:28;32.78;;;19.55;;
35777;SDS011;21899;42.662;23.316;2023-05-18T08:46:58;24.60;;;16.27;;
35777;SDS011;21899;42.662;23.316;2023-05-18T08:49:25;24.48;;;15.68;;
35777;SDS011;21899;42.662;23.316;2023-05-18T08:51:55;22.35;;;14.25;;
35777;SDS011;21899;42.662;23.316;2023-05-18T08:54:24;23.80;;;14.13;;
35777;SDS011;21899;42.662;23.316;2023-05-18T08:56:50;20.92;;;13.30;;
35777;SDS011;21899;42.662;23.316;2023-05-18T08:59:17;24.60;;;14.55;;
35777;SDS011;21899;42.662;23.316;2023-05-18T09:01:47;20.25;;;12.60;;
35777;SDS011;21899;42.662;23.316;2023-05-18T09:04:12;42.83;;;21.77;;
35777;SDS011;21899;42.662;23.316;2023-05-18T09:06:39;25.45;;;14.43;;
35777;SDS011;21899;42.662;23.316;2023-05-18T09:09:05;26.95;;;14.48;;
35777;SDS011;21899;42.662;23.316;2023-05-18T09:11:32;18.67;;;12.43;;
35777;SDS011;21899;42.662;23.316;2023-05-18T09:13:58;19.75;;;12.80;;
35777;SDS011;21899;42.662;23.316;2023-05-18T09:16:24;18.73;;;11.95;;
35777;SDS011;21899;42.662;23.316;2023-05-18T09:18:51;18.88;;;11.82;;
35777;SDS011;21899;42.662;23.316;2023-05-18T09:21:18;18.40;;;11.05;;
35777;SDS011;21899;42.662;23.316;2023-05-18T09:23:44;18.90;;;12.50;;
35777;SDS011;21899;42.662;23.316;2023-05-18T09:26:09;21.20;;;12.98;;
35777;SDS011;21899;42.662;23.316;2023-05-18T09:28:37;19.88;;;12.35;;
35777;SDS011;21899;42.662;23.316;2023-05-18T09:31:08;17.52;;;12.80;;
35777;SDS011;21899;42.662;23.316;2023-05-18T09:33:41;23.42;;;13.40;;
35777;SDS011;21899;42.662;23.316;2023-05-18T09:36:08;18.33;;;13.02;;
35777;SDS011;21899;42.662;23.316;2023-05-18T09:38:35;13.93;;;11.38;;
35777;SDS011;21899;42.662;23.316;2023-05-18T09:41:09;24.48;;;11.43;;
35777;SDS011;21899;42.662;23.316;2023-05-18T09:43:37;15.65;;;9.95;;
35777;SDS011;21899;42.662;23.316;2023-05-18T09:46:06;15.65;;;10.00;;
35777;SDS011;21899;42.662;23.316;2023-05-18T09:48:36;14.50;;;9.77;;
35777;SDS011;21899;42.662;23.316;2023-05-18T09:51:06;15.23;;;10.07;;
35777;SDS011;21899;42.662;23.316;2023-05-18T09:53:35;18.00;;;9.48;;
35777;SDS011;21899;42.662;23.316;2023-05-18T09:56:04;26.38;;;11.50;;
35777;SDS011;21899;42.662;23.316;2023-05-18T09:58:38;18.08;;;9.43;;
35777;SDS011;21899;42.662;23.316;2023-05-18T10:01:04;14.57;;;9.10;;
35777;SDS011;21899;42.662;23.316;2023-05-18T10:03:31;13.07;;;9.52;;
35777;SDS011;21899;42.662;23.316;2023-05-18T10:06:05;19.10;;;10.02;;
35777;SDS011;21899;42.662;23.316;2023-05-18T10:08:32;14.55;;;9.82;;
35777;SDS011;21899;42.662;23.316;2023-05-18T10:10:58;18.50;;;9.73;;
35777;SDS011;21899;42.662;23.316;2023-05-18T10:13:25;15.50;;;9.23;;
35777;SDS011;21899;42.662;23.316;2023-05-18T10:15:54;17.15;;;10.00;;
35777;SDS011;21899;42.662;23.316;2023-05-18T10:18:30;13.38;;;8.65;;
35777;SDS011;21899;42.662;23.316;2023-05-18T10:20:59;16.73;;;9.38;;
35777;SDS011;21899;42.662;23.316;2023-05-18T10:23:29;16.23;;;10.45;;
35777;SDS011;21899;42.662;23.316;2023-05-18T10:25:56;13.40;;;8.85;;
35777;SDS011;21899;42.662;23.316;2023-05-18T10:28:26;16.65;;;8.82;;
35777;SDS011;21899;42.662;23.316;2023-05-18T10:30:58;21.02;;;10.38;;
35777;SDS011;21899;42.662;23.316;2023-05-18T10:33:26;17.42;;;9.18;;
35777;SDS011;21899;42.662;23.316;2023-05-18T10:35:52;19.25;;;10.13;;
35777;SDS011;21899;42.662;23.316;2023-05-18T10:38:27;16.00;;;9.50;;
35777;SDS011;21899;42.662;23.316;2023-05-18T10:40:55;20.88;;;10.68;;
35777;SDS011;21899;42.662;23.316;2023-05-18T10:43:23;16.75;;;9.60;;
35777;SDS011;21899;42.662;23.316;2023-05-18T10:45:53;16.23;;;9.45;;
35777;SDS011;21899;42.662;23.316;2023-05-18T10:48:21;18.42;;;10.38;;
35777;SDS011;21899;42.662;23.316;2023-05-18T10:50:48;13.02;;;8.45;;
35777;SDS011;21899;42.662;23.316;2023-05-18T10:53:18;15.77;;;8.55;;
35777;SDS011;21899;42.662;23.316;2023-05-18T10:55:48;18.77;;;9.93;;
35777;SDS011;21899;42.662;23.316;2023-05-18T10:58:16;15.20;;;8.38;;
35777;SDS011;21899;42.662;23.316;2023-05-18T11:00:49;13.75;;;9.50;;
35777;SDS011;21899;42.662;23.316;2023-05-18T11:03:19;17.33;;;9.50;;
35777;SDS011;21899;42.662;23.316;2023-05-18T11:05:49;29.13;;;10.48;;
35777;SDS011;21899;42.662;23.316;2023-05-18T11:08:25;15.18;;;9.18;;
35777;SDS011;21899;42.662;23.316;2023-05-18T11:10:57;15.93;;;8.82;;
35777;SDS011;21899;42.662;23.316;2023-05-18T11:13:27;14.55;;;8.40;;
35777;SDS011;21899;42.662;23.316;2023-05-18T11:18:25;16.48;;;8.05;;
35777;SDS011;21899;42.662;23.316;2023-05-18T11:20:58;14.38;;;8.70;;
35777;SDS011;21899;42.662;23.316;2023-05-18T11:23:25;19.75;;;9.18;;
35777;SDS011;21899;42.662;23.316;2023-05-18T11:26:00;13.65;;;8.23;;
35777;SDS011;21899;42.662;23.316;2023-05-18T11:28:27;13.77;;;9.07;;
35777;SDS011;21899;42.662;23.316;2023-05-18T11:30:52;12.18;;;7.88;;
35777;SDS011;21899;42.662;23.316;2023-05-18T11:33:27;11.02;;;6.85;;
35777;SDS011;21899;42.662;23.316;2023-05-18T11:36:02;7.53;;;6.22;;
35777;SDS011;21899;42.662;23.316;2023-05-18T11:38:49;12.37;;;7.00;;
35777;SDS011;21899;42.662;23.316;2023-05-18T11:41:36;10.57;;;7.43;;
35777;SDS011;21899;42.662;23.316;2023-05-18T11:44:21;11.27;;;7.28;;
35777;SDS011;21899;42.662;23.316;2023-05-18T11:49:27;11.60;;;6.38;;
35777;SDS011;21899;42.662;23.316;2023-05-18T11:54:33;9.50;;;5.93;;
35777;SDS011;21899;42.662;23.316;2023-05-18T11:57:00;9.40;;;5.78;;
35777;SDS011;21899;42.662;23.316;2023-05-18T11:59:30;6.45;;;5.00;;
35777;SDS011;21899;42.662;23.316;2023-05-18T12:02:01;7.80;;;5.15;;
35777;SDS011;21899;42.662;23.316;2023-05-18T12:04:28;5.80;;;4.25;;
35777;SDS011;21899;42.662;23.316;2023-05-18T12:06:55;6.55;;;3.90;;
35777;SDS011;21899;42.662;23.316;2023-05-18T12:09:21;5.82;;;4.10;;
35777;SDS011;21899;42.662;23.316;2023-05-18T12:11:48;8.23;;;4.05;;
35777;SDS011;21899;42.662;23.316;2023-05-18T12:14:14;6.88;;;4.05;;
35777;SDS011;21899;42.662;23.316;2023-05-18T12:16:42;9.30;;;4.53;;
35777;SDS011;21899;42.662;23.316;2023-05-18T12:19:08;6.97;;;3.75;;
35777;SDS011;21899;42.662;23.316;2023-05-18T12:21:37;6.68;;;3.88;;
35777;SDS011;21899;42.662;23.316;2023-05-18T12:24:03;6.15;;;3.88;;
35777;SDS011;21899;42.662;23.316;2023-05-18T12:26:29;6.32;;;3.95;;
35777;SDS011;21899;42.662;23.316;2023-05-18T12:28:56;6.28;;;3.75;;
35777;SDS011;21899;42.662;23.316;2023-05-18T12:31:23;6.22;;;3.65;;
35777;SDS011;21899;42.662;23.316;2023-05-18T12:33:49;7.78;;;3.97;;
35777;SDS011;21899;42.662;23.316;2023-05-18T12:36:15;7.10;;;4.25;;
35777;SDS011;21899;42.662;23.316;2023-05-18T12:38:41;9.10;;;5.18;;
35777;SDS011;21899;42.662;23.316;2023-05-18T12:41:06;10.38;;;5.15;;
35777;SDS011;21899;42.662;23.316;2023-05-18T12:43:35;8.90;;;4.20;;
35777;SDS011;21899;42.662;23.316;2023-05-18T12:46:01;10.27;;;5.20;;
35777;SDS011;21899;42.662;23.316;2023-05-18T12:48:34;10.52;;;5.65;;
35777;SDS011;21899;42.662;23.316;2023-05-18T12:50:59;10.15;;;6.03;;
35777;SDS011;21899;42.662;23.316;2023-05-18T12:53:25;8.20;;;4.95;;
35777;SDS011;21899;42.662;23.316;2023-05-18T12:55:57;10.70;;;6.65;;
35777;SDS011;21899;42.662;23.316;2023-05-18T12:58:23;15.63;;;8.88;;
35777;SDS011;21899;42.662;23.316;2023-05-18T13:00:49;7.78;;;5.35;;
35777;SDS011;21899;42.662;23.316;2023-05-18T13:03:15;10.00;;;5.70;;
35777;SDS011;21899;42.662;23.316;2023-05-18T13:05:43;8.55;;;4.88;;
35777;SDS011;21899;42.662;23.316;2023-05-18T13:08:13;8.10;;;5.05;;
35777;SDS011;21899;42.662;23.316;2023-05-18T13:10:43;11.63;;;6.65;;
35777;SDS011;21899;42.662;23.316;2023-05-18T13:13:09;9.32;;;5.03;;
35777;SDS011;21899;42.662;23.316;2023-05-18T13:15:38;6.55;;;4.68;;
35777;SDS011;21899;42.662;23.316;2023-05-18T13:18:06;8.35;;;5.47;;
35777;SDS011;21899;42.662;23.316;2023-05-18T13:20:50;8.85;;;5.35;;
35777;SDS011;21899;42.662;23.316;2023-05-18T13:23:18;12.38;;;6.10;;
35777;SDS011;21899;42.662;23.316;2023-05-18T13:25:45;10.40;;;6.60;;
35777;SDS011;21899;42.662;23.316;2023-05-18T13:28:12;9.63;;;5.78;;
35777;SDS011;21899;42.662;23.316;2023-05-18T13:30:38;9.43;;;6.07;;
35777;SDS011;21899;42.662;23.316;2023-05-18T13:33:06;9.52;;;6.13;;
35777;SDS011;21899;42.662;23.316;2023-05-18T13:35:37;11.48;;;6.53;;
35777;SDS011;21899;42.662;23.316;2023-05-18T13:38:06;9.68;;;6.25;;
35777;SDS011;21899;42.662;23.316;2023-05-18T13:40:32;15.43;;;6.40;;
35777;SDS011;21899;42.662;23.316;2023-05-18T13:42:57;10.13;;;6.40;;
35777;SDS011;21899;42.662;23.316;2023-05-18T13:45:22;12.00;;;7.65;;
35777;SDS011;21899;42.662;23.316;2023-05-18T13:47:48;12.57;;;7.47;;
35777;SDS011;21899;42.662;23.316;2023-05-18T13:50:16;12.18;;;7.63;;
35777;SDS011;21899;42.662;23.316;2023-05-18T13:52:42;8.75;;;6.05;;
35777;SDS011;21899;42.662;23.316;2023-05-18T13:55:07;13.63;;;6.18;;
35777;SDS011;21899;42.662;23.316;2023-05-18T13:57:33;12.18;;;6.32;;
35777;SDS011;21899;42.662;23.316;2023-05-18T13:59:59;8.82;;;6.10;;
35777;SDS011;21899;42.662;23.316;2023-05-18T14:02:27;14.40;;;7.05;;
35777;SDS011;21899;42.662;23.316;2023-05-18T14:04:53;15.88;;;7.32;;
35777;SDS011;21899;42.662;23.316;2023-05-18T14:07:18;13.02;;;7.45;;
35777;SDS011;21899;42.662;23.316;2023-05-18T14:09:43;10.48;;;6.13;;
35777;SDS011;21899;42.662;23.316;2023-05-18T14:12:09;10.82;;;5.85;;
35777;SDS011;21899;42.662;23.316;2023-05-18T14:14:38;11.68;;;5.95;;
35777;SDS011;21899;42.662;23.316;2023-05-18T14:17:05;13.90;;;5.28;;
35777;SDS011;21899;42.662;23.316;2023-05-18T14:19:30;17.15;;;7.40;;
35777;SDS011;21899;42.662;23.316;2023-05-18T14:21:56;8.25;;;6.15;;
35777;SDS011;21899;42.662;23.316;2023-05-18T14:24:21;6.65;;;4.80;;
35777;SDS011;21899;42.662;23.316;2023-05-18T14:26:47;9.25;;;5.85;;
35777;SDS011;21899;42.662;23.316;2023-05-18T14:29:12;9.52;;;6.90;;
35777;SDS011;21899;42.662;23.316;2023-05-18T14:31:38;11.43;;;6.28;;
35777;SDS011;21899;42.662;23.316;2023-05-18T14:34:03;11.20;;;7.05;;
35777;SDS011;21899;42.662;23.316;2023-05-18T14:36:28;11.25;;;7.57;;
35777;SDS011;21899;42.662;23.316;2023-05-18T14:38:54;14.60;;;7.57;;